createdAt,value
2019-03-25T00:01:06.919Z,14.37
2019-03-25T00:03:36.745Z,14.83
2019-03-25T00:06:06.552Z,13.47
2019-03-25T00:08:36.499Z,11.60
2019-03-25T00:11:06.316Z,13.47
2019-03-25T00:13:36.203Z,13.63
2019-03-25T00:16:06.503Z,13.37
2019-03-25T00:18:36.316Z,12.67
2019-03-25T00:21:06.155Z,12.07
2019-03-25T00:23:35.951Z,13.57
2019-03-25T00:26:05.755Z,12.00
2019-03-25T00:28:35.615Z,13.03
2019-03-25T00:31:05.490Z,12.77
2019-03-25T00:33:35.351Z,13.33
2019-03-25T00:36:05.187Z,13.03
2019-03-25T00:38:35.031Z,13.50
2019-03-25T00:41:05.430Z,16.13
2019-03-25T00:43:35.319Z,11.00
2019-03-25T00:46:05.226Z,12.77
2019-03-25T00:48:35.074Z,11.87
2019-03-25T00:51:04.858Z,12.27
2019-03-25T00:53:34.691Z,11.67
2019-03-25T00:56:04.741Z,11.13
2019-03-25T00:58:34.522Z,11.60
2019-03-25T01:01:04.280Z,12.90
2019-03-25T01:03:34.094Z,12.63
2019-03-25T01:06:03.926Z,13.40
2019-03-25T01:08:33.783Z,13.63
2019-03-25T01:11:03.693Z,13.63
2019-03-25T01:13:33.472Z,13.13
2019-03-25T01:16:03.356Z,13.53
2019-03-25T01:18:33.298Z,14.07
2019-03-25T01:21:03.140Z,13.53
2019-03-25T01:23:33.126Z,13.87
2019-03-25T01:26:02.931Z,13.93
2019-03-25T01:28:32.753Z,14.47
2019-03-25T01:31:02.633Z,12.90
2019-03-25T01:33:32.559Z,14.33
2019-03-25T01:36:02.334Z,17.77
2019-03-25T01:38:32.168Z,14.23
2019-03-25T01:41:02.083Z,20.07
2019-03-25T01:43:31.879Z,20.17
2019-03-25T01:46:01.705Z,20.40
2019-03-25T01:48:31.535Z,17.90
2019-03-25T01:51:01.402Z,16.97
2019-03-25T01:53:31.182Z,16.47
2019-03-25T01:56:01.063Z,14.87
2019-03-25T01:58:30.948Z,19.97
2019-03-25T02:01:01.363Z,16.53
2019-03-25T02:03:31.079Z,15.07
2019-03-25T02:06:00.899Z,13.43
2019-03-25T02:08:30.706Z,13.47
2019-03-25T02:11:00.515Z,14.10
2019-03-25T02:13:30.295Z,15.40
2019-03-25T02:16:00.194Z,16.20
2019-03-25T02:18:29.971Z,16.97
2019-03-25T02:21:00.191Z,17.47
2019-03-25T02:23:29.971Z,20.40
2019-03-25T02:25:59.804Z,22.07
2019-03-25T02:28:29.623Z,18.97
2019-03-25T02:30:59.499Z,20.73
2019-03-25T02:33:29.326Z,21.37
2019-03-25T02:35:59.123Z,20.53
2019-03-25T02:38:28.893Z,22.67
2019-03-25T02:40:59.204Z,20.13
2019-03-25T02:43:28.991Z,21.27
2019-03-25T02:45:59.076Z,20.73
2019-03-25T02:48:28.934Z,21.37
2019-03-25T02:50:58.725Z,18.43
2019-03-25T02:53:28.527Z,19.40
2019-03-25T02:55:58.424Z,18.70
2019-03-25T02:58:28.433Z,19.70
2019-03-25T03:00:58.228Z,19.03
2019-03-25T03:03:28.009Z,19.60
2019-03-25T03:05:57.780Z,21.23
2019-03-25T03:08:27.584Z,22.87
2019-03-25T03:10:57.494Z,22.97
2019-03-25T03:13:27.257Z,22.50
2019-03-25T03:15:57.147Z,23.20
2019-03-25T03:18:26.980Z,22.17
2019-03-25T03:20:56.968Z,23.00
2019-03-25T03:23:26.823Z,20.20
2019-03-25T03:25:58.171Z,21.43
2019-03-25T03:28:28.255Z,21.57
2019-03-25T03:30:58.461Z,20.37
2019-03-25T03:33:28.282Z,21.60
2019-03-25T03:35:58.058Z,21.60
2019-03-25T03:38:28.247Z,21.57
2019-03-25T03:41:01.687Z,22.90
2019-03-25T03:43:31.449Z,21.77
2019-03-25T03:46:01.296Z,22.20
2019-03-25T03:48:31.093Z,22.47
2019-03-25T03:51:01.153Z,20.87
2019-03-25T03:53:31.323Z,20.93
2019-03-25T03:56:12.728Z,20.97
2019-03-25T03:58:34.935Z,19.63
2019-03-25T04:01:04.762Z,18.90
2019-03-25T04:03:34.526Z,21.23
2019-03-25T04:06:04.363Z,19.77
2019-03-25T04:08:34.171Z,20.80
2019-03-25T04:11:04.045Z,18.40
2019-03-25T04:13:33.869Z,17.97
2019-03-25T04:16:03.728Z,17.83
2019-03-25T04:18:33.587Z,20.27
2019-03-25T04:21:03.416Z,19.40
2019-03-25T04:23:33.251Z,19.37
2019-03-25T04:26:03.038Z,17.67
2019-03-25T04:28:32.858Z,17.97
2019-03-25T04:33:22.627Z,19.27
2019-03-25T04:35:52.568Z,18.43
2019-03-25T04:38:22.403Z,17.27
2019-03-25T04:40:52.196Z,19.13
2019-03-25T04:43:22.040Z,17.50
2019-03-25T04:45:51.864Z,17.10
2019-03-25T04:48:21.731Z,17.50
2019-03-25T04:50:51.586Z,21.53
2019-03-25T04:53:21.755Z,18.23
2019-03-25T04:55:51.606Z,18.50
2019-03-25T04:58:21.371Z,17.60
2019-03-25T05:00:51.283Z,19.53
2019-03-25T05:03:21.070Z,18.07
2019-03-25T05:05:50.882Z,18.30
2019-03-25T05:08:20.665Z,17.63
2019-03-25T05:10:50.493Z,18.93
2019-03-25T05:13:20.278Z,18.73
2019-03-25T05:15:50.138Z,20.67
2019-03-25T05:18:19.906Z,18.53
2019-03-25T05:20:49.740Z,19.03
2019-03-25T05:23:19.584Z,20.97
2019-03-25T05:25:49.483Z,22.93
2019-03-25T05:28:19.305Z,19.63
2019-03-25T05:30:49.138Z,18.97
2019-03-25T05:33:18.942Z,16.40
2019-03-25T05:35:48.850Z,18.47
2019-03-25T05:38:18.629Z,19.87
2019-03-25T05:40:48.442Z,19.87
2019-03-25T05:43:20.943Z,18.47
2019-03-25T05:45:49.766Z,20.17
2019-03-25T05:48:19.565Z,23.63
2019-03-25T05:50:49.458Z,26.27
2019-03-25T05:53:19.286Z,26.23
2019-03-25T05:55:49.143Z,28.33
2019-03-25T05:58:18.987Z,26.43
2019-03-25T06:00:48.802Z,25.17
2019-03-25T06:03:18.722Z,27.73
2019-03-25T06:05:48.545Z,22.60
2019-03-25T06:08:18.369Z,22.80
2019-03-25T06:10:48.170Z,25.73
2019-03-25T06:13:17.982Z,33.53
2019-03-25T06:15:47.797Z,30.83
2019-03-25T06:18:20.372Z,26.70
2019-03-25T06:20:49.769Z,27.40
2019-03-25T06:23:19.589Z,23.60
2019-03-25T06:25:49.476Z,27.20
2019-03-25T06:28:19.361Z,24.80
2019-03-25T06:30:49.173Z,25.87
2019-03-25T06:33:19.001Z,22.90
2019-03-25T06:35:48.860Z,23.77
2019-03-25T06:38:18.729Z,23.70
2019-03-25T06:40:49.315Z,21.50
2019-03-25T06:43:19.264Z,21.27
2019-03-25T06:45:49.965Z,23.93
2019-03-25T06:48:19.857Z,26.97
2019-03-25T06:50:50.196Z,35.00
2019-03-25T06:53:20.008Z,27.17
2019-03-25T06:55:49.984Z,24.67
2019-03-25T06:58:19.897Z,25.23
2019-03-25T07:00:49.826Z,26.83
2019-03-25T07:03:19.663Z,26.77
2019-03-25T07:05:49.517Z,26.13
2019-03-25T07:08:19.445Z,23.37
2019-03-25T07:10:49.449Z,21.20
2019-03-25T07:13:19.476Z,21.00
2019-03-25T07:15:49.324Z,17.80
2019-03-25T07:18:19.114Z,15.63
2019-03-25T07:20:49.024Z,16.03
2019-03-25T07:23:18.812Z,12.37
2019-03-25T07:25:48.691Z,13.10
2019-03-25T07:28:18.501Z,9.90
2019-03-25T07:30:48.311Z,9.93
2019-03-25T07:33:18.211Z,12.47
2019-03-25T07:35:48.072Z,11.33
2019-03-25T07:38:17.910Z,13.23
2019-03-25T07:40:47.775Z,13.97
2019-03-25T07:43:17.608Z,13.00
2019-03-25T07:45:47.483Z,13.90
2019-03-25T07:48:17.295Z,17.40
2019-03-25T07:50:47.102Z,17.90
2019-03-25T07:53:16.919Z,17.53
2019-03-25T07:55:46.775Z,24.30
2019-03-25T07:58:16.588Z,34.03
2019-03-25T08:00:46.449Z,35.30
2019-03-25T08:03:16.267Z,45.47
2019-03-25T08:05:46.147Z,24.63
2019-03-25T08:08:16.059Z,18.87
2019-03-25T08:10:45.939Z,14.00
2019-03-25T08:13:15.858Z,13.50
2019-03-25T08:15:45.772Z,11.67
2019-03-25T08:18:15.664Z,11.77
2019-03-25T08:20:45.451Z,10.73
2019-03-25T08:23:15.263Z,10.17
2019-03-25T08:25:45.276Z,10.80
2019-03-25T08:28:15.258Z,10.93
2019-03-25T08:30:45.077Z,9.80
2019-03-25T08:33:14.915Z,8.83
2019-03-25T08:35:44.982Z,7.67
2019-03-25T08:38:14.851Z,7.40
2019-03-25T08:40:44.799Z,8.77
2019-03-25T08:43:14.667Z,7.10
2019-03-25T08:45:44.531Z,9.57
2019-03-25T08:48:14.474Z,8.37
2019-03-25T08:50:44.307Z,14.63
2019-03-25T08:53:14.143Z,7.73
2019-03-25T08:55:44.081Z,9.00
2019-03-25T08:58:13.947Z,7.70
2019-03-25T09:00:43.819Z,7.10
2019-03-25T09:03:13.765Z,7.00
2019-03-25T09:05:43.585Z,7.47
2019-03-25T09:08:13.528Z,7.70
2019-03-25T09:10:43.431Z,6.53
2019-03-25T09:13:13.238Z,5.63
2019-03-25T09:15:43.171Z,6.57
2019-03-25T09:18:13.059Z,5.53
2019-03-25T09:20:43.330Z,6.30
2019-03-25T09:23:13.208Z,5.23
2019-03-25T09:25:43.114Z,5.70
2019-03-25T09:28:23.717Z,12.63
2019-03-25T09:31:20.713Z,12.67
2019-03-25T09:33:50.766Z,5.23
2019-03-25T09:36:21.765Z,5.43
2019-03-25T09:38:51.972Z,6.97
2019-03-25T09:41:21.981Z,5.17
2019-03-25T09:43:51.950Z,7.17
2019-03-25T09:46:21.830Z,4.53
2019-03-25T09:48:51.833Z,4.57
2019-03-25T09:51:21.694Z,4.23
2019-03-25T09:53:51.530Z,4.07
2019-03-25T09:56:21.549Z,4.93
2019-03-25T09:58:51.433Z,4.93
2019-03-25T10:01:21.301Z,4.30
2019-03-25T10:03:51.193Z,4.40
2019-03-25T10:06:21.161Z,4.37
2019-03-25T10:08:51.013Z,4.33
2019-03-25T10:11:20.945Z,4.73
2019-03-25T10:13:50.809Z,4.70
2019-03-25T10:16:20.653Z,4.57
2019-03-25T10:18:50.516Z,4.23
2019-03-25T10:21:20.361Z,3.87
2019-03-25T10:23:50.210Z,3.80
2019-03-25T10:26:20.041Z,4.10
2019-03-25T10:28:50.786Z,3.40
2019-03-25T10:31:20.709Z,4.30
2019-03-25T10:33:50.519Z,3.30
2019-03-25T10:36:20.436Z,4.10
2019-03-25T10:38:50.339Z,6.63
2019-03-25T10:41:20.322Z,4.80
2019-03-25T10:43:50.616Z,3.67
2019-03-25T10:46:20.429Z,5.17
2019-03-25T10:48:50.289Z,4.53
2019-03-25T10:51:20.115Z,4.40
2019-03-25T10:53:50.021Z,4.50
2019-03-25T10:56:19.860Z,4.60
2019-03-25T10:58:57.851Z,4.07
2019-03-25T11:01:21.325Z,4.57
2019-03-25T11:03:51.258Z,4.37
2019-03-25T11:06:21.178Z,4.27
2019-03-25T11:08:51.079Z,3.87
2019-03-25T11:11:20.984Z,4.40
2019-03-25T11:13:50.920Z,4.57
2019-03-25T11:16:20.782Z,4.87
2019-03-25T11:18:50.735Z,4.90
2019-03-25T11:21:20.576Z,4.00
2019-03-25T11:23:50.545Z,4.27
2019-03-25T11:26:20.532Z,4.40
2019-03-25T11:28:50.380Z,4.90
2019-03-25T11:31:20.231Z,5.50
2019-03-25T11:33:50.143Z,5.33
2019-03-25T11:36:20.052Z,5.00
2019-03-25T11:38:49.903Z,5.23
2019-03-25T11:41:19.748Z,6.67
2019-03-25T11:43:49.599Z,5.90
2019-03-25T11:46:19.419Z,7.07
2019-03-25T11:48:49.339Z,6.37
2019-03-25T11:51:19.151Z,6.90
2019-03-25T11:53:49.172Z,6.60
2019-03-25T11:56:19.024Z,6.60
2019-03-25T11:58:48.938Z,7.13
2019-03-25T12:01:18.861Z,6.90
2019-03-25T12:03:49.600Z,6.50
2019-03-25T12:06:19.419Z,6.63
2019-03-25T12:08:49.391Z,6.57
2019-03-25T12:11:19.203Z,7.37
2019-03-25T12:13:49.055Z,6.27
2019-03-25T12:16:19.019Z,6.10
2019-03-25T12:18:48.828Z,6.23
2019-03-25T12:21:18.670Z,6.70
2019-03-25T12:23:48.607Z,6.80
2019-03-25T12:26:18.439Z,7.50
2019-03-25T12:28:48.983Z,7.23
2019-03-25T12:31:18.923Z,29.67
2019-03-25T12:33:48.835Z,9.97
2019-03-25T12:36:18.718Z,5.70
2019-03-25T12:38:48.682Z,8.60
2019-03-25T12:41:18.490Z,7.03
2019-03-25T12:43:48.418Z,6.13
2019-03-25T12:46:18.278Z,4.67
2019-03-25T12:48:48.054Z,4.33
2019-03-25T12:51:17.918Z,5.57
2019-03-25T12:53:47.859Z,4.70
2019-03-25T12:56:17.738Z,7.70
2019-03-25T12:58:47.699Z,7.63
2019-03-25T13:01:17.646Z,18.27
2019-03-25T13:03:47.414Z,28.00
2019-03-25T13:06:17.310Z,27.70
2019-03-25T13:08:47.114Z,5.53
2019-03-25T13:11:17.070Z,7.13
2019-03-25T13:13:46.995Z,10.57
2019-03-25T13:16:16.826Z,6.63
2019-03-25T13:18:46.733Z,6.63
2019-03-25T13:21:16.556Z,6.80
2019-03-25T13:23:46.373Z,5.93
2019-03-25T13:26:16.242Z,11.80
2019-03-25T13:28:46.217Z,31.30
2019-03-25T13:31:16.033Z,6.90
2019-03-25T13:33:45.948Z,10.33
2019-03-25T13:36:15.918Z,7.40
2019-03-25T13:38:45.798Z,5.67
2019-03-25T13:41:15.650Z,5.80
2019-03-25T13:43:45.561Z,6.90
2019-03-25T13:46:15.496Z,6.10
2019-03-25T13:48:45.394Z,5.40
2019-03-25T13:51:15.309Z,5.70
2019-03-25T13:53:45.153Z,6.40
2019-03-25T13:56:15.089Z,6.53
2019-03-25T13:58:44.924Z,16.00
2019-03-25T14:01:14.743Z,31.47
2019-03-25T14:03:44.677Z,18.63
2019-03-25T14:06:14.541Z,9.70
2019-03-25T14:08:44.350Z,10.60
2019-03-25T14:11:14.173Z,10.10
2019-03-25T14:13:49.139Z,10.57
2019-03-25T14:16:15.682Z,7.80
2019-03-25T14:18:45.510Z,7.90
2019-03-25T14:21:15.393Z,7.30
2019-03-25T14:23:45.272Z,8.03
2019-03-25T14:26:15.149Z,8.90
2019-03-25T14:28:45.004Z,7.57
2019-03-25T14:31:14.849Z,8.90
2019-03-25T14:33:44.700Z,7.43
2019-03-25T14:36:15.213Z,6.00
2019-03-25T14:38:45.133Z,6.83
2019-03-25T14:41:14.998Z,6.30
2019-03-25T14:43:44.829Z,6.23
2019-03-25T14:46:14.668Z,6.70
2019-03-25T14:48:44.616Z,8.10
2019-03-25T14:51:16.891Z,6.20
2019-03-25T14:53:46.821Z,6.97
2019-03-25T14:56:16.618Z,6.00
2019-03-25T14:58:46.565Z,5.03
2019-03-25T15:01:16.461Z,5.30
2019-03-25T15:03:46.304Z,5.37
2019-03-25T15:06:16.228Z,9.23
2019-03-25T15:08:46.037Z,17.17
2019-03-25T15:11:15.952Z,9.30
2019-03-25T15:13:45.876Z,14.30
2019-03-25T15:16:15.800Z,9.30
2019-03-25T15:18:45.620Z,9.00
2019-03-25T15:21:15.415Z,9.23
2019-03-25T15:23:45.324Z,11.00
2019-03-25T15:26:15.206Z,16.33
2019-03-25T15:28:45.102Z,20.27
2019-03-25T15:31:14.902Z,25.47
2019-03-25T15:33:44.842Z,18.17
2019-03-25T15:36:14.677Z,19.17
2019-03-25T15:38:44.550Z,17.87
2019-03-25T15:41:14.367Z,25.43
2019-03-25T15:43:44.182Z,24.17
2019-03-25T15:46:14.841Z,15.87
2019-03-25T15:48:44.659Z,14.27
2019-03-25T15:51:14.470Z,23.00
2019-03-25T15:53:44.294Z,16.17
2019-03-25T15:56:14.041Z,14.83
2019-03-25T15:58:43.871Z,13.20
2019-03-25T16:01:13.715Z,11.80
2019-03-25T16:03:43.662Z,15.50
2019-03-25T16:06:13.474Z,12.37
2019-03-25T16:08:43.378Z,12.53
2019-03-25T16:11:13.192Z,12.10
2019-03-25T16:13:43.028Z,10.57
2019-03-25T16:16:12.901Z,15.23
2019-03-25T16:18:43.303Z,14.57
2019-03-25T16:21:13.107Z,15.07
2019-03-25T16:23:43.013Z,15.60
2019-03-25T16:26:12.925Z,13.60
2019-03-25T16:28:42.765Z,13.73
2019-03-25T16:31:12.603Z,17.60
2019-03-25T16:33:42.437Z,18.90
2019-03-25T16:36:12.321Z,16.37
2019-03-25T16:38:42.367Z,19.00
2019-03-25T16:41:13.045Z,21.10
2019-03-25T16:43:42.949Z,25.33
2019-03-25T16:46:12.965Z,16.67
2019-03-25T16:48:43.049Z,12.90
2019-03-25T16:51:13.033Z,33.87
2019-03-25T16:53:42.877Z,25.90
2019-03-25T16:56:12.801Z,30.97
2019-03-25T16:58:42.614Z,30.83
2019-03-25T17:01:12.436Z,39.77
2019-03-25T17:03:42.409Z,28.10
2019-03-25T17:06:12.211Z,38.10
2019-03-25T17:08:41.993Z,48.60
2019-03-25T17:11:11.887Z,46.10
2019-03-25T17:13:41.779Z,39.97
2019-03-25T17:16:11.636Z,30.17
2019-03-25T17:18:41.456Z,31.77
2019-03-25T17:21:11.252Z,37.10
2019-03-25T17:23:41.072Z,37.10
2019-03-25T17:26:10.916Z,46.30
2019-03-25T17:28:40.704Z,40.73
2019-03-25T17:31:20.591Z,53.60
2019-03-25T17:33:42.051Z,32.87
2019-03-25T17:36:11.880Z,19.43
2019-03-25T17:38:41.670Z,18.33
2019-03-25T17:41:11.610Z,18.03
2019-03-25T17:43:41.395Z,20.10
2019-03-25T17:46:11.214Z,18.47
2019-03-25T17:48:41.082Z,21.60
2019-03-25T17:51:10.901Z,19.67
2019-03-25T17:53:40.709Z,18.93
2019-03-25T17:56:10.587Z,19.57
2019-03-25T17:58:40.434Z,21.97
2019-03-25T18:01:31.711Z,25.63
2019-03-25T18:03:53.725Z,16.70
2019-03-25T18:06:23.610Z,20.37
2019-03-25T18:08:53.534Z,15.97
2019-03-25T18:11:23.354Z,19.57
2019-03-25T18:13:53.150Z,19.63
2019-03-25T18:16:22.997Z,20.43
2019-03-25T18:18:52.829Z,19.23
2019-03-25T18:21:22.686Z,13.40
2019-03-25T18:23:52.449Z,11.03
2019-03-25T18:26:22.301Z,11.10
2019-03-25T18:28:52.278Z,10.53
2019-03-25T18:31:22.109Z,10.37
2019-03-25T18:33:51.910Z,10.13
2019-03-25T18:36:21.690Z,12.43
2019-03-25T18:38:51.557Z,10.10
2019-03-25T18:41:21.398Z,10.20
2019-03-25T18:43:51.332Z,8.97
2019-03-25T18:46:21.206Z,11.43
2019-03-25T18:48:51.360Z,14.33
2019-03-25T18:51:21.164Z,13.30
2019-03-25T18:53:51.081Z,12.87
2019-03-25T18:56:20.981Z,14.13
2019-03-25T18:58:50.950Z,13.03
2019-03-25T19:01:20.807Z,14.73
2019-03-25T19:03:50.646Z,16.77
2019-03-25T19:06:21.052Z,21.77
2019-03-25T19:08:51.982Z,19.77
2019-03-25T19:11:30.831Z,17.50
2019-03-25T19:13:53.401Z,17.60
2019-03-25T19:16:23.188Z,14.67
2019-03-25T19:18:52.974Z,13.40
2019-03-25T19:21:22.839Z,12.50
2019-03-25T19:23:52.652Z,12.67
2019-03-25T19:26:22.476Z,13.30
2019-03-25T19:28:52.544Z,14.33
2019-03-25T19:31:22.389Z,11.07
2019-03-25T19:33:52.193Z,10.87
2019-03-25T19:36:22.084Z,12.90
2019-03-25T19:38:51.846Z,11.60
2019-03-25T19:41:31.757Z,20.53
2019-03-25T19:43:53.198Z,15.50
2019-03-25T19:46:23.070Z,17.03
2019-03-25T19:48:52.995Z,21.10
2019-03-25T19:51:22.781Z,16.23
2019-03-25T19:53:52.536Z,15.47
2019-03-25T19:56:22.577Z,17.70
2019-03-25T19:58:52.428Z,11.37
2019-03-25T20:01:22.280Z,9.10
2019-03-25T20:03:52.125Z,10.33
2019-03-25T20:06:26.365Z,10.30
2019-03-25T20:08:53.562Z,11.30
2019-03-25T20:11:23.356Z,12.80
2019-03-25T20:13:53.475Z,11.93
2019-03-25T20:16:23.387Z,13.87
2019-03-25T20:18:53.184Z,13.63
2019-03-25T20:21:23.072Z,12.57
2019-03-25T20:23:52.869Z,11.40
2019-03-25T20:26:23.678Z,11.87
2019-03-25T20:28:53.534Z,11.33
2019-03-25T20:31:23.405Z,12.17
2019-03-25T20:33:53.235Z,14.50
2019-03-25T20:36:23.871Z,17.57
2019-03-25T20:38:53.821Z,20.77
2019-03-25T20:41:23.965Z,17.23
2019-03-25T20:43:53.925Z,16.83
2019-03-25T20:46:23.720Z,25.07
2019-03-25T20:48:53.644Z,22.97
2019-03-25T20:51:23.435Z,18.33
2019-03-25T20:53:53.341Z,16.23
2019-03-25T20:56:23.134Z,17.10
2019-03-25T20:58:52.919Z,16.10
2019-03-25T21:01:23.253Z,15.07
2019-03-25T21:03:53.002Z,18.17
2019-03-25T21:06:23.520Z,18.13
2019-03-25T21:08:53.301Z,20.80
2019-03-25T21:11:23.129Z,16.93
2019-03-25T21:13:52.981Z,16.07
2019-03-25T21:16:22.885Z,13.00
2019-03-25T21:18:52.718Z,13.80
2019-03-25T21:21:22.508Z,15.33
2019-03-25T21:23:52.273Z,17.57
2019-03-25T21:26:22.133Z,17.70
2019-03-25T21:28:51.883Z,15.27
2019-03-25T21:31:21.709Z,14.10
2019-03-25T21:33:51.617Z,17.03
2019-03-25T21:36:21.355Z,18.07
2019-03-25T21:38:51.159Z,15.53
2019-03-25T21:41:20.961Z,16.10
2019-03-25T21:43:50.807Z,17.37
2019-03-25T21:46:20.587Z,18.57
2019-03-25T21:48:50.483Z,16.17
2019-03-25T21:51:20.636Z,17.43
2019-03-25T21:53:53.048Z,17.17
2019-03-25T21:56:22.023Z,14.23
2019-03-25T21:58:51.921Z,16.73
2019-03-25T22:01:21.755Z,12.57
2019-03-25T22:03:51.521Z,9.77
2019-03-25T22:06:21.359Z,10.77
2019-03-25T22:08:51.136Z,12.73
2019-03-25T22:11:20.963Z,11.67
2019-03-25T22:13:50.865Z,12.00
2019-03-25T22:16:20.758Z,11.70
2019-03-25T22:18:50.588Z,10.60
2019-03-25T22:21:20.342Z,12.33
2019-03-25T22:23:50.282Z,10.87
2019-03-25T22:26:20.038Z,10.63
2019-03-25T22:28:49.921Z,13.50
2019-03-25T22:31:19.762Z,13.03
2019-03-25T22:33:49.646Z,12.33
2019-03-25T22:36:19.505Z,12.73
2019-03-25T22:38:49.463Z,12.80
2019-03-25T22:41:19.264Z,12.20
2019-03-25T22:43:49.159Z,12.13
2019-03-25T22:46:18.982Z,11.47
2019-03-25T22:48:48.870Z,10.33
2019-03-25T22:51:18.707Z,10.03
2019-03-25T22:53:48.485Z,11.40
2019-03-25T22:56:18.465Z,11.37
2019-03-25T22:58:48.253Z,13.17
2019-03-25T23:01:18.244Z,14.87
2019-03-25T23:03:48.025Z,13.07
2019-03-25T23:06:17.909Z,12.03
2019-03-25T23:08:47.688Z,12.83
2019-03-25T23:11:17.522Z,13.93
2019-03-25T23:13:47.404Z,12.90
2019-03-25T23:16:17.245Z,17.23
2019-03-25T23:18:47.204Z,12.17
2019-03-25T23:21:17.004Z,12.87
2019-03-25T23:23:46.884Z,12.10
2019-03-25T23:26:16.716Z,13.27
2019-03-25T23:28:46.529Z,15.20
2019-03-25T23:31:16.352Z,15.60
2019-03-25T23:33:52.165Z,14.67
2019-03-25T23:36:17.753Z,14.37
2019-03-25T23:38:47.576Z,13.50
2019-03-25T23:41:17.432Z,12.60
2019-03-25T23:43:47.252Z,13.53
2019-03-25T23:46:17.113Z,13.37
2019-03-25T23:48:46.913Z,13.87
2019-03-25T23:51:16.780Z,12.00
2019-03-25T23:53:46.552Z,8.83
2019-03-25T23:56:18.633Z,10.67
2019-03-25T23:58:47.841Z,9.63
